createdAt,value
2019-05-16T00:01:55.311Z,67.30
2019-05-16T00:04:23.237Z,66.90
2019-05-16T00:06:51.221Z,67.67
2019-05-16T00:09:19.191Z,67.43
2019-05-16T00:11:48.819Z,67.10
2019-05-16T00:14:18.803Z,67.00
2019-05-16T00:16:48.335Z,66.53
2019-05-16T00:19:18.113Z,66.50
2019-05-16T00:21:46.299Z,67.60
2019-05-16T00:24:14.284Z,67.70
2019-05-16T00:26:42.225Z,68.97
2019-05-16T00:29:10.239Z,67.17
2019-05-16T00:31:38.384Z,67.07
2019-05-16T00:34:06.328Z,67.63
2019-05-16T00:36:34.235Z,67.97
2019-05-16T00:39:02.278Z,67.73
2019-05-16T00:41:30.293Z,67.07
2019-05-16T00:43:58.222Z,66.67
2019-05-16T00:46:27.954Z,66.40
2019-05-16T00:48:56.008Z,67.87
2019-05-16T00:51:23.978Z,66.83
2019-05-16T00:53:51.964Z,66.77
2019-05-16T00:56:19.938Z,66.70
2019-05-16T00:58:48.441Z,66.67
2019-05-16T01:01:18.765Z,67.40
2019-05-16T01:03:48.311Z,66.60
2019-05-16T01:06:21.932Z,66.80
2019-05-16T01:08:45.861Z,66.83
2019-05-16T01:11:13.759Z,67.40
2019-05-16T01:13:41.720Z,67.20
2019-05-16T01:16:09.617Z,66.80
2019-05-16T01:18:37.993Z,67.37
2019-05-16T01:21:07.822Z,66.70
2019-05-16T01:23:36.057Z,67.57
2019-05-16T01:26:04.017Z,66.87
2019-05-16T01:28:31.934Z,66.67
2019-05-16T01:30:59.866Z,66.97
2019-05-16T01:33:28.229Z,66.60
2019-05-16T01:35:58.289Z,67.17
2019-05-16T01:38:28.336Z,66.83
2019-05-16T01:40:58.120Z,66.93
2019-05-16T01:43:25.358Z,66.97
2019-05-16T01:45:53.304Z,66.90
2019-05-16T01:48:21.326Z,66.90
2019-05-16T01:50:49.289Z,66.97
2019-05-16T01:53:17.828Z,67.27
2019-05-16T01:55:48.571Z,67.37
2019-05-16T01:58:15.825Z,66.53
2019-05-16T02:00:52.344Z,66.77
2019-05-16T02:03:13.545Z,66.53
2019-05-16T02:05:41.570Z,67.13
2019-05-16T02:08:09.550Z,66.90
2019-05-16T02:10:37.949Z,66.63
2019-05-16T02:13:08.319Z,66.97
2019-05-16T02:15:38.108Z,67.37
2019-05-16T02:18:08.004Z,66.60
2019-05-16T02:20:35.018Z,66.40
2019-05-16T02:23:03.000Z,67.47
2019-05-16T02:25:30.948Z,67.40
2019-05-16T02:27:59.035Z,66.57
2019-05-16T02:30:27.039Z,66.60
2019-05-16T02:32:55.057Z,67.20
2019-05-16T02:35:22.929Z,66.73
2019-05-16T02:37:54.722Z,66.70
2019-05-16T02:40:22.006Z,66.83
2019-05-16T02:42:51.503Z,66.80
2019-05-16T02:45:21.265Z,67.50
2019-05-16T02:47:51.330Z,66.53
2019-05-16T02:50:22.467Z,66.87
2019-05-16T02:52:51.743Z,67.20
2019-05-16T02:55:21.376Z,66.20
2019-05-16T02:57:50.967Z,66.57
2019-05-16T03:00:20.950Z,66.70
2019-05-16T03:02:50.468Z,67.40
2019-05-16T03:05:20.879Z,66.53
2019-05-16T03:07:51.823Z,67.10
2019-05-16T03:10:20.308Z,67.43
2019-05-16T03:12:50.874Z,66.83
2019-05-16T03:15:17.597Z,67.50
2019-05-16T03:17:46.456Z,66.57
2019-05-16T03:20:14.568Z,67.00
2019-05-16T03:22:42.965Z,67.03
2019-05-16T03:25:11.672Z,68.17
2019-05-16T03:27:41.354Z,67.20
2019-05-16T03:30:15.286Z,67.30
2019-05-16T03:32:45.142Z,66.70
2019-05-16T03:35:14.539Z,66.70
2019-05-16T03:37:54.362Z,67.47
2019-05-16T03:40:10.849Z,67.07
2019-05-16T03:42:41.356Z,68.20
2019-05-16T03:45:10.547Z,66.87
2019-05-16T03:47:37.356Z,67.97
2019-05-16T03:50:05.506Z,66.47
2019-05-16T03:52:33.435Z,67.17
2019-05-16T03:55:02.028Z,67.20
2019-05-16T03:57:30.656Z,66.77
2019-05-16T04:00:00.570Z,67.60
2019-05-16T04:02:30.957Z,68.07
2019-05-16T04:05:01.376Z,67.57
2019-05-16T04:07:30.983Z,66.93
2019-05-16T04:09:57.491Z,67.93
2019-05-16T04:12:25.455Z,67.07
2019-05-16T04:14:53.423Z,67.17
2019-05-16T04:17:21.383Z,67.17
2019-05-16T04:19:50.892Z,67.23
2019-05-16T04:22:21.462Z,67.37
2019-05-16T04:24:51.302Z,66.80
2019-05-16T04:27:21.196Z,67.17
2019-05-16T04:29:51.056Z,67.67
2019-05-16T04:32:20.565Z,67.43
2019-05-16T04:34:47.209Z,66.90
2019-05-16T04:37:15.187Z,66.70
2019-05-16T04:39:43.147Z,67.03
2019-05-16T04:42:11.435Z,67.30
2019-05-16T04:44:41.722Z,67.63
2019-05-16T04:47:10.964Z,66.77
2019-05-16T04:49:41.160Z,66.90
2019-05-16T04:52:10.993Z,67.40
2019-05-16T04:54:41.509Z,66.60
2019-05-16T04:57:07.588Z,66.97
2019-05-16T04:59:35.597Z,68.60
2019-05-16T05:02:03.591Z,66.60
2019-05-16T05:04:31.660Z,66.90
2019-05-16T05:07:00.470Z,66.40
2019-05-16T05:09:31.509Z,67.73
2019-05-16T05:12:03.593Z,67.10
2019-05-16T05:14:30.623Z,66.60
2019-05-16T05:16:57.777Z,66.80
2019-05-16T05:19:25.690Z,67.10
2019-05-16T05:21:53.671Z,67.67
2019-05-16T05:24:21.624Z,67.20
2019-05-16T05:26:50.359Z,67.97
2019-05-16T05:29:20.053Z,67.40
2019-05-16T05:31:54.220Z,67.70
2019-05-16T05:34:19.902Z,66.20
2019-05-16T05:36:47.627Z,66.97
2019-05-16T05:39:15.748Z,68.73
2019-05-16T05:41:43.680Z,67.07
2019-05-16T05:44:11.630Z,67.57
2019-05-16T05:46:40.186Z,68.60
2019-05-16T05:49:10.391Z,69.80
2019-05-16T05:51:37.804Z,70.27
2019-05-16T05:54:05.749Z,69.27
2019-05-16T05:56:33.651Z,68.60
2019-05-16T05:59:01.700Z,68.13
2019-05-16T06:01:31.595Z,68.27
2019-05-16T06:03:59.810Z,67.60
2019-05-16T06:06:30.242Z,67.00
2019-05-16T06:08:57.670Z,67.40
2019-05-16T06:11:25.653Z,67.53
2019-05-16T06:13:53.602Z,77.37
2019-05-16T06:16:21.595Z,74.07
2019-05-16T06:18:50.299Z,73.50
2019-05-16T06:21:20.292Z,72.20
2019-05-16T06:23:50.642Z,73.97
2019-05-16T06:26:20.183Z,72.10
2019-05-16T06:28:50.241Z,76.50
2019-05-16T06:31:17.298Z,73.33
2019-05-16T06:33:45.283Z,72.60
2019-05-16T06:36:13.320Z,73.50
2019-05-16T06:38:41.306Z,71.97
2019-05-16T06:41:10.610Z,73.57
2019-05-16T06:43:40.038Z,71.57
2019-05-16T06:46:08.059Z,72.30
2019-05-16T06:48:36.047Z,72.20
2019-05-16T06:51:03.999Z,70.77
2019-05-16T06:53:31.987Z,71.67
2019-05-16T06:56:00.249Z,71.67
2019-05-16T06:58:30.321Z,72.97
2019-05-16T07:01:00.454Z,71.70
2019-05-16T07:03:27.776Z,70.57
2019-05-16T07:05:55.840Z,71.30
2019-05-16T07:08:23.799Z,72.07
2019-05-16T07:10:51.885Z,70.37
2019-05-16T07:13:20.006Z,71.00
2019-05-16T07:15:50.020Z,69.87
2019-05-16T07:18:20.439Z,69.23
2019-05-16T07:20:47.400Z,71.10
2019-05-16T07:23:15.297Z,75.80
2019-05-16T07:25:43.247Z,71.40
2019-05-16T07:28:11.244Z,70.10
2019-05-16T07:30:40.789Z,70.40
2019-05-16T07:33:09.818Z,70.40
2019-05-16T07:35:40.038Z,69.67
2019-05-16T07:38:07.596Z,69.27
2019-05-16T07:40:35.585Z,72.73
2019-05-16T07:43:03.536Z,70.70
2019-05-16T07:45:31.516Z,70.10
2019-05-16T07:48:00.087Z,68.67
2019-05-16T07:50:30.046Z,73.40
2019-05-16T07:52:59.882Z,69.70
2019-05-16T07:55:27.475Z,69.77
2019-05-16T07:57:55.517Z,70.60
2019-05-16T08:00:45.879Z,69.40
2019-05-16T08:02:53.128Z,68.37
2019-05-16T08:05:21.444Z,68.50
2019-05-16T08:07:51.238Z,68.53
2019-05-16T08:10:35.935Z,68.63
2019-05-16T08:12:51.325Z,71.30
2019-05-16T08:15:21.265Z,69.30
2019-05-16T08:17:51.168Z,69.50
2019-05-16T08:20:21.090Z,70.10
2019-05-16T08:22:50.534Z,69.07
2019-05-16T08:25:20.117Z,68.00
2019-05-16T08:27:47.261Z,70.40
2019-05-16T08:30:15.262Z,69.20
2019-05-16T08:32:43.211Z,69.40
2019-05-16T08:35:11.374Z,67.67
2019-05-16T08:40:11.424Z,68.10
2019-05-16T08:42:41.568Z,69.40
2019-05-16T08:45:12.464Z,69.97
2019-05-16T08:47:44.569Z,67.40
2019-05-16T08:50:14.692Z,68.17
2019-05-16T08:52:43.519Z,68.30
2019-05-16T08:55:13.450Z,74.50
2019-05-16T08:57:41.717Z,68.47
2019-05-16T09:00:14.638Z,68.90
2019-05-16T09:02:42.196Z,70.00
2019-05-16T09:05:13.486Z,68.80
2019-05-16T09:07:39.432Z,68.67
2019-05-16T09:10:35.466Z,69.13
2019-05-16T09:12:37.273Z,67.80
2019-05-16T09:15:07.708Z,68.50
2019-05-16T09:17:37.437Z,68.47
2019-05-16T09:18:38.511Z,68.53
2019-05-16T09:20:07.432Z,68.07
2019-05-16T09:22:37.644Z,69.13
2019-05-16T09:25:07.601Z,68.97
2019-05-16T09:27:34.797Z,69.00
2019-05-16T09:30:02.833Z,68.90
2019-05-16T09:32:30.796Z,71.37
2019-05-16T09:34:59.108Z,67.57
2019-05-16T09:37:27.560Z,68.10
2019-05-16T09:39:57.328Z,68.40
2019-05-16T09:42:27.714Z,68.37
2019-05-16T09:44:57.638Z,68.97
2019-05-16T09:47:27.929Z,68.87
2019-05-16T09:49:57.780Z,69.00
2019-05-16T09:52:26.941Z,68.97
2019-05-16T09:54:54.420Z,74.20
2019-05-16T09:57:22.385Z,69.20
2019-05-16T09:59:50.372Z,69.30
2019-05-16T10:02:18.424Z,70.07
2019-05-16T10:04:47.340Z,69.70
2019-05-16T10:07:17.968Z,69.67
2019-05-16T10:09:50.050Z,68.90
2019-05-16T10:12:18.103Z,70.73
2019-05-16T10:14:46.874Z,69.67
2019-05-16T10:17:14.432Z,72.00
2019-05-16T10:19:42.436Z,71.03
2019-05-16T10:22:10.490Z,68.67
2019-05-16T10:24:38.757Z,70.17
2019-05-16T10:27:06.771Z,69.17
2019-05-16T10:29:37.573Z,69.37
2019-05-16T10:32:07.432Z,72.93
2019-05-16T10:34:34.493Z,70.27
2019-05-16T10:37:02.373Z,71.47
2019-05-16T10:39:30.357Z,68.70
2019-05-16T10:41:58.549Z,72.60
2019-05-16T10:44:28.252Z,69.60
2019-05-16T10:46:56.118Z,69.53
2019-05-16T10:49:34.286Z,70.67
2019-05-16T10:51:53.785Z,69.90
2019-05-16T10:54:21.848Z,70.50
2019-05-16T10:56:50.056Z,70.33
2019-05-16T11:01:47.732Z,70.30
2019-05-16T11:04:28.631Z,74.23
2019-05-16T11:06:46.582Z,70.27
2019-05-16T11:09:17.201Z,72.30
2019-05-16T11:11:44.311Z,70.40
2019-05-16T11:14:12.381Z,70.77
2019-05-16T11:16:40.412Z,72.73
2019-05-16T11:19:17.230Z,69.77
2019-05-16T11:21:38.133Z,70.63
2019-05-16T11:24:12.133Z,70.77
2019-05-16T11:26:36.736Z,72.70
2019-05-16T11:29:07.289Z,71.10
2019-05-16T11:31:37.138Z,69.23
2019-05-16T11:34:05.363Z,69.80
2019-05-16T11:36:33.420Z,71.60
2019-05-16T11:39:02.027Z,70.50
2019-05-16T11:41:30.161Z,72.00
2019-05-16T11:43:58.224Z,69.90
2019-05-16T11:46:28.216Z,70.53
2019-05-16T11:48:56.947Z,71.90
2019-05-16T11:51:27.193Z,71.33
2019-05-16T11:53:59.726Z,70.10
2019-05-16T11:56:25.455Z,70.60
2019-05-16T11:58:57.158Z,70.00
2019-05-16T12:01:27.746Z,68.90
2019-05-16T12:04:00.070Z,70.40
2019-05-16T12:06:31.978Z,69.57
2019-05-16T12:08:59.936Z,71.23
2019-05-16T12:11:27.921Z,69.70
2019-05-16T12:13:56.642Z,70.60
2019-05-16T12:16:27.341Z,69.87
2019-05-16T12:18:57.005Z,71.23
2019-05-16T12:21:24.392Z,69.67
2019-05-16T12:23:52.391Z,70.10
2019-05-16T12:26:20.433Z,69.67
2019-05-16T12:28:48.421Z,70.37
2019-05-16T12:31:17.443Z,70.47
2019-05-16T12:33:47.859Z,71.17
2019-05-16T12:36:17.504Z,69.60
2019-05-16T12:38:46.765Z,70.20
2019-05-16T12:41:14.887Z,68.10
2019-05-16T12:43:49.710Z,71.00
2019-05-16T12:46:12.607Z,71.17
2019-05-16T12:48:40.542Z,70.70
2019-05-16T12:51:09.153Z,69.90
2019-05-16T12:53:37.156Z,70.97
2019-05-16T12:56:05.275Z,70.93
2019-05-16T12:58:42.163Z,71.70
2019-05-16T13:01:02.957Z,71.90
2019-05-16T13:03:30.926Z,69.83
2019-05-16T13:05:58.878Z,72.70
2019-05-16T13:08:27.023Z,71.70
2019-05-16T13:10:57.690Z,70.37
2019-05-16T13:13:27.604Z,69.87
2019-05-16T13:15:54.660Z,69.47
2019-05-16T13:18:22.570Z,70.50
2019-05-16T13:20:50.612Z,69.63
2019-05-16T13:23:18.695Z,69.90
2019-05-16T13:25:48.149Z,70.30
2019-05-16T13:28:16.769Z,72.70
2019-05-16T13:30:46.930Z,70.00
2019-05-16T13:33:14.340Z,69.30
2019-05-16T13:35:42.328Z,74.87
2019-05-16T13:38:10.411Z,70.47
2019-05-16T13:40:38.436Z,70.23
2019-05-16T13:43:09.781Z,69.80
2019-05-16T13:45:37.756Z,69.50
2019-05-16T13:48:08.135Z,70.07
2019-05-16T13:50:37.272Z,70.07
2019-05-16T13:53:07.729Z,73.77
2019-05-16T13:55:34.720Z,72.50
2019-05-16T13:58:03.078Z,70.60
2019-05-16T14:00:31.151Z,70.10
2019-05-16T14:02:59.218Z,71.77
2019-05-16T14:05:27.150Z,71.57
2019-05-16T14:07:57.289Z,70.37
2019-05-16T14:10:29.349Z,73.87
2019-05-16T14:12:54.745Z,72.90
2019-05-16T14:15:22.719Z,72.50
2019-05-16T14:17:50.709Z,69.87
2019-05-16T14:20:18.804Z,70.10
2019-05-16T14:22:46.714Z,71.40
2019-05-16T14:25:14.699Z,73.43
2019-05-16T14:27:42.664Z,75.10
2019-05-16T14:30:11.274Z,71.77
2019-05-16T14:32:42.915Z,73.00
2019-05-16T14:35:09.282Z,73.70
2019-05-16T14:37:37.819Z,71.73
2019-05-16T14:40:06.322Z,71.23
2019-05-16T14:42:34.410Z,70.90
2019-05-16T14:45:11.174Z,70.73
2019-05-16T14:47:32.175Z,73.80
2019-05-16T14:50:00.107Z,71.17
2019-05-16T14:52:28.128Z,74.07
2019-05-16T14:54:57.531Z,72.57
2019-05-16T14:57:27.399Z,70.57
2019-05-16T14:59:56.521Z,72.83
2019-05-16T15:02:27.262Z,73.20
2019-05-16T15:04:56.837Z,69.90
2019-05-16T15:07:24.217Z,71.20
2019-05-16T15:09:52.260Z,71.50
2019-05-16T15:12:20.237Z,72.57
2019-05-16T15:14:48.226Z,71.70
2019-05-16T15:17:16.807Z,70.37
2019-05-16T15:19:46.617Z,73.80
2019-05-16T15:22:16.782Z,70.00
2019-05-16T15:24:44.491Z,70.37
2019-05-16T15:27:13.078Z,70.63
2019-05-16T15:29:41.069Z,70.77
2019-05-16T15:32:09.013Z,70.20
2019-05-16T15:34:38.006Z,72.17
2019-05-16T15:37:07.839Z,71.50
2019-05-16T15:39:37.460Z,70.93
2019-05-16T15:42:08.224Z,70.57
2019-05-16T15:44:36.865Z,71.63
2019-05-16T15:47:07.411Z,69.30
2019-05-16T15:49:37.544Z,70.03
2019-05-16T15:52:07.117Z,70.50
2019-05-16T15:54:34.252Z,71.73
2019-05-16T15:57:02.283Z,72.60
2019-05-16T15:59:30.321Z,70.27
2019-05-16T16:01:58.539Z,72.60
2019-05-16T16:04:27.099Z,71.37
2019-05-16T16:06:55.434Z,70.90
2019-05-16T16:09:23.522Z,71.53
2019-05-16T16:11:51.563Z,70.47
2019-05-16T16:14:19.554Z,71.00
2019-05-16T16:16:47.495Z,71.80
2019-05-16T16:19:17.514Z,70.87
2019-05-16T16:21:47.261Z,70.20
2019-05-16T16:24:18.575Z,70.47
2019-05-16T16:26:46.927Z,72.00
2019-05-16T16:29:16.881Z,71.30
2019-05-16T16:31:44.343Z,71.47
2019-05-16T16:34:12.304Z,72.37
2019-05-16T16:36:40.272Z,71.07
2019-05-16T16:39:08.357Z,72.23
2019-05-16T16:41:37.554Z,70.17
2019-05-16T16:44:07.725Z,71.40
2019-05-16T16:46:37.456Z,73.30
2019-05-16T16:49:07.473Z,71.40
2019-05-16T16:51:37.406Z,71.77
2019-05-16T16:54:07.618Z,73.43
2019-05-16T16:56:37.587Z,73.77
2019-05-16T16:59:06.473Z,72.37
2019-05-16T17:01:37.293Z,72.83
2019-05-16T17:04:06.590Z,72.70
2019-05-16T17:06:37.365Z,72.03
2019-05-16T17:09:07.486Z,72.07
2019-05-16T17:11:37.104Z,72.17
2019-05-16T17:14:06.875Z,70.97
2019-05-16T17:16:37.734Z,74.77
2019-05-16T17:19:07.471Z,74.97
2019-05-16T17:21:36.776Z,72.27
2019-05-16T17:24:06.443Z,71.80
2019-05-16T17:26:34.280Z,70.77
2019-05-16T17:29:03.350Z,71.20
2019-05-16T17:31:31.458Z,74.07
2019-05-16T17:33:59.553Z,76.97
2019-05-16T17:36:27.593Z,77.57
2019-05-16T17:38:57.115Z,75.47
2019-05-16T17:41:27.184Z,71.50
2019-05-16T17:43:56.321Z,71.17
2019-05-16T17:46:36.709Z,74.60
2019-05-16T17:48:54.193Z,73.20
2019-05-16T17:51:26.132Z,72.97
2019-05-16T17:53:53.701Z,72.17
2019-05-16T17:56:22.922Z,70.20
2019-05-16T17:58:50.927Z,70.70
2019-05-16T18:01:18.921Z,71.30
2019-05-16T18:03:46.811Z,70.90
2019-05-16T18:06:16.849Z,70.07
2019-05-16T18:08:46.698Z,70.27
2019-05-16T18:11:14.274Z,71.27
2019-05-16T18:13:42.249Z,70.80
2019-05-16T18:16:10.249Z,70.57
2019-05-16T18:18:38.209Z,73.67
2019-05-16T18:21:06.877Z,70.57
2019-05-16T18:23:36.939Z,70.60
2019-05-16T18:26:04.913Z,71.33
2019-05-16T18:28:32.960Z,72.20
2019-05-16T18:31:01.008Z,70.10
2019-05-16T18:33:28.977Z,70.50
2019-05-16T18:35:57.981Z,70.60
2019-05-16T18:38:26.511Z,72.10
2019-05-16T18:40:56.641Z,73.50
2019-05-16T18:43:24.477Z,70.87
2019-05-16T18:45:52.401Z,70.47
2019-05-16T18:48:20.433Z,70.67
2019-05-16T18:50:48.341Z,70.07
2019-05-16T18:53:17.810Z,69.97
2019-05-16T18:55:46.283Z,70.07
2019-05-16T18:58:14.397Z,72.67
2019-05-16T19:00:42.719Z,70.60
2019-05-16T19:03:10.679Z,70.50
2019-05-16T19:05:38.610Z,69.30
2019-05-16T19:08:07.340Z,69.80
2019-05-16T19:10:36.674Z,68.90
2019-05-16T19:13:07.701Z,71.53
2019-05-16T19:15:37.189Z,70.60
2019-05-16T19:18:06.559Z,70.30
2019-05-16T19:20:37.182Z,70.87
2019-05-16T19:23:06.969Z,70.67
2019-05-16T19:25:34.346Z,69.90
2019-05-16T19:28:02.980Z,69.30
2019-05-16T19:30:31.797Z,68.90
2019-05-16T19:32:59.707Z,70.47
2019-05-16T19:35:27.659Z,70.70
2019-05-16T19:37:56.975Z,70.10
2019-05-16T19:40:25.016Z,70.47
2019-05-16T19:42:52.943Z,70.57
2019-05-16T19:45:20.981Z,71.50
2019-05-16T19:47:48.943Z,75.07
2019-05-16T19:50:16.917Z,70.27
2019-05-16T19:52:47.034Z,70.57
2019-05-16T19:55:14.492Z,71.47
2019-05-16T19:57:42.485Z,73.00
2019-05-16T20:00:10.857Z,70.60
2019-05-16T20:02:38.854Z,72.57
2019-05-16T20:05:07.092Z,69.50
2019-05-16T20:07:37.255Z,70.10
2019-05-16T20:10:08.966Z,70.37
2019-05-16T20:12:36.868Z,74.23
2019-05-16T20:15:08.960Z,69.97
2019-05-16T20:17:36.463Z,75.80
2019-05-16T20:20:04.422Z,70.90
2019-05-16T20:22:32.407Z,70.60
2019-05-16T20:25:01.535Z,70.57
2019-05-16T20:27:29.645Z,69.70
2019-05-16T20:29:59.371Z,70.77
2019-05-16T20:32:28.012Z,72.87
2019-05-16T20:34:56.053Z,71.13
2019-05-16T20:37:26.464Z,71.37
2019-05-16T20:39:54.031Z,70.60
2019-05-16T20:42:21.975Z,69.87
2019-05-16T20:44:49.989Z,71.20
2019-05-16T20:47:18.017Z,70.67
2019-05-16T20:49:47.742Z,71.30
2019-05-16T20:52:17.476Z,72.40
2019-05-16T20:54:46.555Z,71.50
2019-05-16T20:57:17.266Z,70.60
2019-05-16T20:59:46.307Z,71.50
2019-05-16T21:02:16.333Z,73.90
2019-05-16T21:04:46.434Z,77.70
2019-05-16T21:07:14.148Z,76.60
2019-05-16T21:09:42.306Z,72.37
2019-05-16T21:12:10.330Z,74.93
2019-05-16T21:14:38.285Z,76.30
2019-05-16T21:17:06.721Z,75.30
2019-05-16T21:19:36.332Z,80.27
2019-05-16T21:22:07.148Z,74.37
2019-05-16T21:24:34.486Z,74.67
2019-05-16T21:27:02.437Z,76.70
2019-05-16T21:29:30.429Z,74.70
2019-05-16T21:31:58.357Z,77.97
2019-05-16T21:34:27.234Z,74.40
2019-05-16T21:36:58.340Z,76.70
2019-05-16T21:39:26.481Z,75.97
2019-05-16T21:41:56.426Z,75.10
2019-05-16T21:44:25.996Z,75.67
2019-05-16T21:46:53.762Z,73.57
2019-05-16T21:49:22.145Z,75.60
2019-05-16T21:51:50.189Z,74.73
2019-05-16T21:54:18.194Z,76.97
2019-05-16T21:56:46.793Z,75.77
2019-05-16T21:59:14.822Z,74.97
2019-05-16T22:01:42.861Z,77.20
2019-05-16T22:04:10.897Z,74.67
2019-05-16T22:06:38.836Z,75.90
2019-05-16T22:09:07.515Z,74.97
2019-05-16T22:11:37.063Z,77.90
2019-05-16T22:14:06.459Z,79.20
2019-05-16T22:16:36.919Z,76.97
2019-05-16T22:19:04.424Z,76.23
2019-05-16T22:21:32.374Z,75.70
2019-05-16T22:24:00.376Z,76.07
2019-05-16T22:26:28.345Z,76.53
2019-05-16T22:28:57.439Z,77.77
2019-05-16T22:31:26.933Z,76.40
2019-05-16T22:33:55.089Z,75.60
2019-05-16T22:36:23.083Z,76.17
2019-05-16T22:38:51.028Z,77.27
2019-05-16T22:41:19.006Z,76.10
2019-05-16T22:43:46.981Z,79.83
2019-05-16T22:46:17.493Z,80.03
2019-05-16T22:48:46.661Z,76.07
2019-05-16T22:51:16.371Z,76.03
2019-05-16T22:53:44.059Z,75.17
2019-05-16T22:56:12.046Z,74.90
2019-05-16T22:58:40.039Z,75.63
2019-05-16T23:01:08.182Z,75.67
2019-05-16T23:03:38.019Z,76.60
2019-05-16T23:06:07.702Z,76.90
2019-05-16T23:08:36.473Z,76.70
2019-05-16T23:11:07.090Z,78.07
2019-05-16T23:13:34.312Z,75.30
2019-05-16T23:16:02.255Z,75.90
2019-05-16T23:18:30.222Z,76.37
2019-05-16T23:20:58.189Z,75.27
2019-05-16T23:23:26.599Z,76.30
2019-05-16T23:25:56.780Z,75.27
2019-05-16T23:28:24.442Z,77.20
2019-05-16T23:30:52.405Z,78.53
2019-05-16T23:33:20.393Z,77.40
2019-05-16T23:35:48.358Z,75.37
2019-05-16T23:38:19.795Z,76.37
2019-05-16T23:40:46.811Z,75.93
2019-05-16T23:43:15.024Z,74.30
2019-05-16T23:45:42.995Z,75.60
2019-05-16T23:48:11.455Z,75.40
2019-05-16T23:50:39.547Z,75.50
2019-05-16T23:53:07.654Z,75.57
2019-05-16T23:55:37.294Z,76.13
2019-05-16T23:58:07.064Z,74.07
